createdAt,value
2023-02-12T00:02:11.474Z,24.57
2023-02-12T00:04:39.401Z,25.10
2023-02-12T00:07:08.318Z,23.43
2023-02-12T00:09:35.848Z,24.73
2023-02-12T00:12:03.343Z,24.37
2023-02-12T00:14:30.910Z,24.97
2023-02-12T00:16:58.414Z,22.87
2023-02-12T00:19:26.031Z,24.47
2023-02-12T00:21:53.553Z,24.63
2023-02-12T00:24:22.615Z,23.70
2023-02-12T00:26:51.040Z,24.13
2023-02-12T00:29:18.580Z,24.50
2023-02-12T00:31:46.149Z,22.90
2023-02-12T00:34:14.519Z,22.83
2023-02-12T00:36:42.060Z,23.30
2023-02-12T00:39:11.480Z,23.60
2023-02-12T00:41:40.427Z,23.30
2023-02-12T00:44:07.899Z,22.67
2023-02-12T00:46:35.500Z,22.53
2023-02-12T00:49:03.073Z,23.17
2023-02-12T00:51:30.617Z,23.17
2023-02-12T00:53:58.105Z,22.53
2023-02-12T00:56:25.833Z,24.10
2023-02-12T00:58:54.695Z,23.53
2023-02-12T01:01:22.328Z,24.53
2023-02-12T01:03:49.896Z,23.70
2023-02-12T01:06:17.455Z,25.10
2023-02-12T01:08:44.975Z,23.17
2023-02-12T01:11:14.390Z,23.23
2023-02-12T01:13:41.974Z,24.07
2023-02-12T01:16:15.712Z,27.30
2023-02-12T01:18:43.445Z,26.37
2023-02-12T01:21:12.484Z,24.40
2023-02-12T01:23:40.132Z,23.93
2023-02-12T01:26:10.597Z,23.37
2023-02-12T01:28:38.538Z,24.30
2023-02-12T01:31:11.449Z,24.23
2023-02-12T01:33:39.271Z,23.70
2023-02-12T01:36:07.801Z,22.60
2023-02-12T01:38:35.813Z,23.50
2023-02-12T01:41:04.348Z,22.77
2023-02-12T01:43:31.867Z,21.83
2023-02-12T01:46:01.477Z,23.00
2023-02-12T01:48:33.945Z,23.80
2023-02-12T01:51:03.810Z,23.20
2023-02-12T01:53:34.526Z,23.73
2023-02-12T01:56:02.945Z,23.23
2023-02-12T01:58:35.090Z,23.17
2023-02-12T02:01:03.946Z,23.03
2023-02-12T02:03:33.156Z,23.57
2023-02-12T02:06:02.396Z,23.10
2023-02-12T02:08:30.330Z,23.10
2023-02-12T02:10:57.808Z,22.33
2023-02-12T02:13:42.939Z,24.00
2023-02-12T02:16:16.324Z,22.13
2023-02-12T02:18:51.333Z,23.13
2023-02-12T02:21:52.596Z,21.93
2023-02-12T02:25:01.489Z,22.20
2023-02-12T02:27:37.111Z,21.47
2023-02-12T02:30:24.261Z,22.17
2023-02-12T02:32:57.174Z,21.17
2023-02-12T02:35:29.228Z,21.80
2023-02-12T02:38:04.228Z,20.87
2023-02-12T02:40:36.267Z,22.57
2023-02-12T02:43:07.608Z,22.73
2023-02-12T02:45:39.405Z,21.47
2023-02-12T02:48:11.571Z,21.10
2023-02-12T02:50:42.190Z,21.70
2023-02-12T02:53:13.144Z,22.63
2023-02-12T02:55:44.971Z,22.30
2023-02-12T02:58:15.619Z,23.87
2023-02-12T03:00:47.208Z,22.97
2023-02-12T03:03:19.991Z,23.07
2023-02-12T03:05:50.806Z,23.43
2023-02-12T03:08:24.025Z,22.40
2023-02-12T03:10:54.328Z,22.17
2023-02-12T03:13:24.779Z,22.67
2023-02-12T03:15:56.199Z,22.73
2023-02-12T03:18:26.515Z,24.67
2023-02-12T03:20:56.690Z,23.60
2023-02-12T03:23:26.614Z,24.10
2023-02-12T03:25:57.980Z,24.70
2023-02-12T03:28:28.775Z,24.53
2023-02-12T03:31:09.488Z,23.63
2023-02-12T03:33:43.413Z,24.60
2023-02-12T03:36:20.444Z,23.73
2023-02-12T03:38:50.921Z,24.90
2023-02-12T03:41:22.852Z,25.53
2023-02-12T03:43:52.795Z,25.90
2023-02-12T03:46:24.449Z,25.57
2023-02-12T03:49:00.498Z,24.97
2023-02-12T03:51:31.512Z,25.27
2023-02-12T03:53:59.167Z,25.00
2023-02-12T03:56:33.043Z,25.37
2023-02-12T03:59:00.782Z,23.50
2023-02-12T04:01:29.819Z,24.20
2023-02-12T04:03:57.724Z,22.27
2023-02-12T04:06:28.725Z,24.80
2023-02-12T04:09:00.177Z,24.33
2023-02-12T04:11:32.000Z,24.83
2023-02-12T04:14:12.345Z,24.60
2023-02-12T04:16:45.497Z,25.90
2023-02-12T04:19:17.654Z,24.00
2023-02-12T04:21:54.871Z,24.37
2023-02-12T04:24:29.481Z,24.93
2023-02-12T04:27:02.533Z,25.60
2023-02-12T04:29:34.338Z,25.10
2023-02-12T04:32:06.588Z,25.30
2023-02-12T04:34:36.747Z,24.07
2023-02-12T04:37:07.278Z,26.10
2023-02-12T04:39:38.083Z,25.70
2023-02-12T04:42:05.869Z,26.07
2023-02-12T04:44:35.752Z,26.77
2023-02-12T04:47:04.745Z,26.20
2023-02-12T04:49:32.262Z,26.43
2023-02-12T04:51:59.767Z,24.80
2023-02-12T04:54:27.288Z,26.07
2023-02-12T04:56:54.812Z,24.50
2023-02-12T04:59:22.336Z,25.80
2023-02-12T05:01:50.069Z,25.60
2023-02-12T05:04:19.591Z,26.13
2023-02-12T05:06:47.542Z,26.20
2023-02-12T05:09:17.021Z,27.33
2023-02-12T05:11:44.641Z,26.17
2023-02-12T05:14:12.285Z,27.20
2023-02-12T05:16:39.913Z,24.20
2023-02-12T05:19:09.375Z,23.77
2023-02-12T05:21:38.607Z,24.97
2023-02-12T05:24:06.864Z,25.07
2023-02-12T05:26:34.800Z,25.43
2023-02-12T05:29:03.312Z,25.97
2023-02-12T05:31:30.996Z,25.23
2023-02-12T05:33:58.626Z,24.33
2023-02-12T05:36:26.567Z,25.63
2023-02-12T05:38:59.256Z,26.23
2023-02-12T05:41:26.895Z,25.93
2023-02-12T05:43:54.839Z,24.07
2023-02-12T05:46:23.053Z,25.83
2023-02-12T05:48:50.739Z,24.33
2023-02-12T05:51:21.719Z,24.70
2023-02-12T05:53:50.628Z,24.47
2023-02-12T05:56:22.105Z,25.00
2023-02-12T05:58:54.190Z,27.00
2023-02-12T06:01:23.833Z,29.90
2023-02-12T06:03:51.471Z,27.37
2023-02-12T06:06:19.054Z,29.00
2023-02-12T06:08:48.724Z,28.20
2023-02-12T06:11:17.463Z,28.50
2023-02-12T06:13:46.336Z,31.93
2023-02-12T06:16:21.018Z,33.07
2023-02-12T06:18:49.108Z,32.97
2023-02-12T06:21:17.062Z,32.23
2023-02-12T06:23:44.724Z,31.33
2023-02-12T06:26:12.257Z,29.87
2023-02-12T06:28:39.897Z,31.13
2023-02-12T06:31:18.720Z,27.87
2023-02-12T06:33:46.303Z,27.33
2023-02-12T06:36:13.895Z,29.60
2023-02-12T06:38:41.531Z,28.43
2023-02-12T06:41:09.071Z,29.07
2023-02-12T06:43:36.821Z,28.13
2023-02-12T06:46:05.832Z,28.17
2023-02-12T06:48:34.880Z,31.20
2023-02-12T06:51:06.866Z,31.77
2023-02-12T06:53:35.536Z,31.23
2023-02-12T06:56:03.862Z,32.13
2023-02-12T06:58:31.808Z,27.93
2023-02-12T07:01:10.845Z,29.37
2023-02-12T07:03:40.273Z,27.93
2023-02-12T07:06:08.149Z,28.63
2023-02-12T07:08:35.715Z,29.50
2023-02-12T07:11:03.276Z,31.03
2023-02-12T07:13:31.005Z,26.90
2023-02-12T07:15:58.888Z,28.10
2023-02-12T07:18:26.490Z,28.73
2023-02-12T07:20:57.163Z,32.73
2023-02-12T07:23:24.659Z,29.87
2023-02-12T07:25:56.514Z,36.13
2023-02-12T07:28:24.630Z,36.00
2023-02-12T07:30:52.268Z,36.27
2023-02-12T07:33:20.317Z,36.83
2023-02-12T07:35:47.930Z,32.50
2023-02-12T07:38:16.777Z,31.60
2023-02-12T07:40:44.318Z,31.03
2023-02-12T07:43:12.101Z,33.27
2023-02-12T07:45:39.694Z,36.30
2023-02-12T07:48:07.506Z,38.20
2023-02-12T07:50:35.093Z,34.53
2023-02-12T07:53:02.664Z,33.83
2023-02-12T07:55:31.507Z,30.57
2023-02-12T07:57:59.053Z,30.50
2023-02-12T08:00:26.945Z,31.20
2023-02-12T08:02:54.992Z,32.87
2023-02-12T08:05:22.501Z,37.90
2023-02-12T08:07:50.194Z,43.00
2023-02-12T08:10:22.331Z,34.23
2023-02-12T08:12:51.269Z,32.13
2023-02-12T08:15:18.943Z,31.77
2023-02-12T08:17:46.451Z,30.37
2023-02-12T08:20:14.278Z,29.37
2023-02-12T08:22:41.823Z,31.37
2023-02-12T08:25:09.647Z,29.07
2023-02-12T08:27:37.139Z,31.57
2023-02-12T08:30:06.856Z,31.33
2023-02-12T08:32:34.436Z,30.20
2023-02-12T08:35:01.933Z,29.90
2023-02-12T08:37:29.452Z,29.90
2023-02-12T08:39:57.047Z,31.50
2023-02-12T08:42:25.684Z,31.20
2023-02-12T08:44:53.153Z,32.80
2023-02-12T08:47:22.261Z,32.97
2023-02-12T08:49:49.841Z,35.70
2023-02-12T08:52:19.391Z,34.63
2023-02-12T08:54:46.859Z,33.73
2023-02-12T08:57:14.346Z,36.40
2023-02-12T08:59:41.888Z,34.30
2023-02-12T09:02:10.725Z,32.40
2023-02-12T09:04:40.982Z,35.57
2023-02-12T09:07:10.874Z,32.60
2023-02-12T09:09:38.553Z,31.93
2023-02-12T09:12:06.754Z,31.23
2023-02-12T09:14:34.254Z,33.03
2023-02-12T09:17:01.986Z,31.30
2023-02-12T09:19:29.571Z,33.90
2023-02-12T09:22:01.625Z,33.93
2023-02-12T09:24:29.204Z,33.63
2023-02-12T09:26:56.822Z,32.53
2023-02-12T09:29:24.476Z,30.87
2023-02-12T09:31:52.164Z,28.43
2023-02-12T09:34:20.142Z,30.23
2023-02-12T09:36:47.719Z,29.07
2023-02-12T09:39:16.603Z,30.77
2023-02-12T09:41:55.292Z,28.97
2023-02-12T09:44:24.004Z,28.30
2023-02-12T09:46:54.948Z,25.67
2023-02-12T09:49:33.310Z,25.33
2023-02-12T09:52:01.269Z,26.83
2023-02-12T09:54:35.394Z,23.97
2023-02-12T09:57:07.386Z,22.13
2023-02-12T09:59:37.656Z,22.40
2023-02-12T10:02:08.045Z,23.40
2023-02-12T10:04:35.622Z,23.50
2023-02-12T10:07:07.999Z,25.73
2023-02-12T10:09:58.982Z,22.77
2023-02-12T10:12:32.167Z,25.97
2023-02-12T10:15:25.649Z,23.27
2023-02-12T10:17:58.588Z,20.73
2023-02-12T10:20:52.438Z,21.33
2023-02-12T10:23:48.262Z,21.57
2023-02-12T10:26:21.858Z,19.23
2023-02-12T10:28:50.578Z,20.17
2023-02-12T10:31:23.400Z,19.30
2023-02-12T10:33:52.678Z,20.23
2023-02-12T10:36:32.143Z,19.57
2023-02-12T10:39:03.478Z,19.80
2023-02-12T10:41:34.070Z,19.53
2023-02-12T10:44:01.574Z,19.53
2023-02-12T10:46:31.403Z,19.20
2023-02-12T10:48:59.767Z,18.23
2023-02-12T10:51:44.781Z,17.60
2023-02-12T10:54:35.973Z,21.17
2023-02-12T10:57:11.328Z,16.00
2023-02-12T10:59:38.998Z,17.07
2023-02-12T11:02:27.504Z,17.43
2023-02-12T11:04:56.666Z,18.50
2023-02-12T11:07:24.922Z,17.77
2023-02-12T11:09:54.828Z,19.80
2023-02-12T11:12:31.429Z,16.60
2023-02-12T11:15:00.546Z,18.50
2023-02-12T11:17:33.792Z,15.53
2023-02-12T11:20:24.728Z,17.33
2023-02-12T11:22:57.311Z,14.80
2023-02-12T11:25:26.712Z,16.00
2023-02-12T11:28:15.869Z,14.67
2023-02-12T11:30:51.181Z,12.30
2023-02-12T11:33:25.258Z,14.33
2023-02-12T11:35:54.526Z,11.67
2023-02-12T11:38:26.078Z,11.73
2023-02-12T11:40:58.544Z,11.97
2023-02-12T11:43:29.397Z,12.73
2023-02-12T11:45:57.820Z,12.20
2023-02-12T11:48:28.851Z,11.20
2023-02-12T11:50:58.356Z,11.37
2023-02-12T11:53:28.835Z,11.80
2023-02-12T11:55:59.285Z,11.83
2023-02-12T11:58:29.295Z,11.27
2023-02-12T12:01:11.200Z,9.97
2023-02-12T12:03:46.414Z,9.50
2023-02-12T12:06:26.768Z,9.23
2023-02-12T12:08:58.216Z,10.70
2023-02-12T12:11:28.387Z,10.57
2023-02-12T12:14:00.656Z,14.57
2023-02-12T12:16:50.384Z,13.93
2023-02-12T12:19:50.168Z,11.77
2023-02-12T12:22:36.602Z,9.77
2023-02-12T12:25:11.616Z,10.30
2023-02-12T12:28:01.775Z,10.87
2023-02-12T12:30:39.455Z,9.13
2023-02-12T12:33:13.657Z,9.13
2023-02-12T12:35:49.880Z,8.93
2023-02-12T12:38:24.107Z,10.20
2023-02-12T12:41:01.858Z,10.50
2023-02-12T12:43:37.316Z,9.53
2023-02-12T12:46:15.710Z,8.87
2023-02-12T12:49:04.105Z,8.67
2023-02-12T12:51:42.300Z,9.73
2023-02-12T12:54:20.159Z,9.93
2023-02-12T12:56:56.826Z,10.37
2023-02-12T12:59:48.382Z,12.80
2023-02-12T13:02:54.232Z,13.60
2023-02-12T13:05:56.308Z,12.60
2023-02-12T13:08:38.702Z,12.47
2023-02-12T13:11:14.634Z,12.73
2023-02-12T13:13:45.250Z,11.53
2023-02-12T13:16:17.504Z,10.77
2023-02-12T13:18:53.489Z,12.10
2023-02-12T13:21:33.642Z,12.30
2023-02-12T13:24:06.510Z,14.33
2023-02-12T13:26:49.555Z,13.37
2023-02-12T13:29:20.277Z,10.47
2023-02-12T13:31:51.134Z,11.13
2023-02-12T13:34:21.277Z,10.37
2023-02-12T13:36:50.303Z,9.93
2023-02-12T13:39:26.374Z,10.33
2023-02-12T13:42:02.114Z,10.50
2023-02-12T13:44:36.694Z,10.13
2023-02-12T13:47:10.614Z,10.90
2023-02-12T13:49:45.370Z,11.87
2023-02-12T13:52:18.305Z,12.77
2023-02-12T13:54:50.992Z,11.33
2023-02-12T13:57:20.816Z,12.30
2023-02-12T13:59:49.906Z,11.90
2023-02-12T14:02:43.751Z,10.60
2023-02-12T14:05:22.822Z,10.70
2023-02-12T14:07:52.030Z,10.83
2023-02-12T14:10:25.061Z,12.60
2023-02-12T14:12:53.632Z,10.57
2023-02-12T14:15:39.912Z,11.03
2023-02-12T14:18:23.939Z,11.37
2023-02-12T14:21:37.768Z,10.03
2023-02-12T14:24:42.831Z,10.73
2023-02-12T14:27:22.822Z,11.60
2023-02-12T14:30:27.359Z,14.00
2023-02-12T14:33:00.855Z,13.90
2023-02-12T14:35:35.979Z,14.50
2023-02-12T14:38:10.059Z,11.73
2023-02-12T14:40:42.601Z,10.63
2023-02-12T14:43:55.931Z,11.30
2023-02-12T14:46:45.880Z,11.03
2023-02-12T14:49:22.482Z,10.40
2023-02-12T14:51:55.326Z,11.03
2023-02-12T14:54:29.173Z,10.97
2023-02-12T14:56:57.341Z,10.27
2023-02-12T14:59:27.515Z,9.57
2023-02-12T15:01:56.003Z,9.57
2023-02-12T15:04:27.168Z,9.17
2023-02-12T15:06:58.238Z,7.63
2023-02-12T15:09:31.311Z,7.57
2023-02-12T15:12:03.046Z,9.90
2023-02-12T15:14:33.605Z,8.50
2023-02-12T15:17:05.041Z,13.93
2023-02-12T15:19:40.826Z,13.00
2023-02-12T15:22:19.854Z,14.40
2023-02-12T15:24:47.470Z,10.77
2023-02-12T15:27:15.542Z,10.90
2023-02-12T15:29:47.289Z,12.53
2023-02-12T15:32:19.324Z,9.97
2023-02-12T15:34:50.006Z,11.27
2023-02-12T15:37:22.763Z,9.53
2023-02-12T15:39:50.757Z,12.27
2023-02-12T15:42:30.120Z,12.10
2023-02-12T15:45:24.103Z,10.17
2023-02-12T15:48:05.248Z,11.83
2023-02-12T15:50:34.106Z,12.30
2023-02-12T15:53:01.746Z,13.10
2023-02-12T15:55:33.299Z,17.67
2023-02-12T15:58:01.871Z,18.10
2023-02-12T16:00:36.362Z,15.27
2023-02-12T16:03:03.951Z,15.07
2023-02-12T16:05:32.611Z,51.43
2023-02-12T16:08:01.673Z,21.30
2023-02-12T16:10:29.275Z,14.87
2023-02-12T16:12:56.842Z,13.00
2023-02-12T16:15:27.972Z,11.43
2023-02-12T16:17:58.427Z,12.03
2023-02-12T16:20:27.215Z,12.37
2023-02-12T16:22:55.490Z,10.47
2023-02-12T16:25:26.384Z,10.43
2023-02-12T16:27:59.277Z,10.13
2023-02-12T16:30:29.733Z,11.47
2023-02-12T16:32:58.983Z,15.07
2023-02-12T16:35:29.500Z,18.10
2023-02-12T16:38:01.557Z,18.53
2023-02-12T16:40:36.313Z,18.93
2023-02-12T16:43:13.115Z,16.07
2023-02-12T16:45:43.002Z,16.83
2023-02-12T16:48:18.110Z,15.20
2023-02-12T16:50:48.911Z,14.03
2023-02-12T16:53:33.000Z,12.63
2023-02-12T16:56:01.495Z,11.90
2023-02-12T16:58:29.469Z,26.73
2023-02-12T17:00:58.666Z,51.13
2023-02-12T17:03:27.620Z,16.80
2023-02-12T17:05:55.370Z,16.63
2023-02-12T17:08:24.674Z,15.73
2023-02-12T17:10:53.251Z,14.97
2023-02-12T17:13:21.763Z,15.20
2023-02-12T17:15:52.639Z,14.13
2023-02-12T17:18:20.506Z,14.57
2023-02-12T17:20:54.503Z,12.43
2023-02-12T17:23:22.297Z,17.57
2023-02-12T17:25:49.986Z,19.47
2023-02-12T17:28:17.570Z,21.93
2023-02-12T17:30:45.299Z,29.37
2023-02-12T17:33:12.951Z,30.70
2023-02-12T17:35:40.704Z,27.43
2023-02-12T17:38:09.878Z,24.20
2023-02-12T17:40:37.661Z,21.70
2023-02-12T17:43:05.964Z,35.30
2023-02-12T17:45:33.683Z,28.87
2023-02-12T17:48:02.221Z,23.57
2023-02-12T17:50:29.934Z,22.73
2023-02-12T17:52:57.586Z,21.43
2023-02-12T17:55:26.430Z,21.93
2023-02-12T17:57:54.900Z,21.80
2023-02-12T18:00:23.183Z,21.97
2023-02-12T18:02:51.094Z,18.97
2023-02-12T18:05:18.674Z,20.30
2023-02-12T18:07:46.189Z,18.03
2023-02-12T18:10:13.759Z,19.70
2023-02-12T18:12:42.619Z,18.47
2023-02-12T18:15:11.033Z,18.77
2023-02-12T18:17:38.710Z,17.47
2023-02-12T18:20:07.848Z,17.97
2023-02-12T18:22:36.244Z,18.57
2023-02-12T18:25:04.049Z,18.17
2023-02-12T18:27:31.571Z,18.60
2023-02-12T18:30:01.022Z,20.30
2023-02-12T18:32:28.501Z,19.33
2023-02-12T18:34:56.034Z,21.17
2023-02-12T18:37:23.591Z,26.80
2023-02-12T18:39:51.091Z,20.70
2023-02-12T18:42:18.647Z,19.20
2023-02-12T18:44:46.148Z,24.73
2023-02-12T18:47:15.009Z,22.93
2023-02-12T18:49:42.506Z,19.57
2023-02-12T18:52:10.007Z,16.17
2023-02-12T18:54:37.783Z,19.50
2023-02-12T18:57:05.294Z,24.53
2023-02-12T18:59:32.840Z,26.23
2023-02-12T19:02:00.716Z,28.77
2023-02-12T19:04:30.244Z,20.17
2023-02-12T19:06:57.840Z,25.47
2023-02-12T19:09:27.152Z,28.93
2023-02-12T19:11:56.419Z,24.60
2023-02-12T19:14:25.319Z,33.20
2023-02-12T19:16:53.809Z,27.87
2023-02-12T19:19:21.948Z,30.53
2023-02-12T19:21:51.175Z,22.97
2023-02-12T19:24:19.026Z,20.97
2023-02-12T19:26:46.630Z,21.53
2023-02-12T19:29:14.777Z,18.93
2023-02-12T19:31:45.602Z,31.30
2023-02-12T19:34:16.928Z,30.50
2023-02-12T19:36:44.942Z,17.27
2023-02-12T19:39:15.698Z,19.27
2023-02-12T19:41:43.661Z,21.20
2023-02-12T19:44:13.273Z,23.83
2023-02-12T19:46:41.281Z,19.27
2023-02-12T19:49:12.493Z,20.30
2023-02-12T19:51:41.754Z,18.57
2023-02-12T19:54:10.251Z,18.83
2023-02-12T19:56:39.358Z,17.37
2023-02-12T19:59:08.483Z,16.37
2023-02-12T20:01:36.361Z,16.17
2023-02-12T20:04:04.532Z,18.00
2023-02-12T20:06:34.934Z,17.70
2023-02-12T20:09:02.861Z,19.23
2023-02-12T20:11:31.715Z,19.83
2023-02-12T20:14:02.178Z,22.47
2023-02-12T20:16:37.557Z,22.10
2023-02-12T20:19:07.982Z,20.77
2023-02-12T20:21:35.614Z,18.97
2023-02-12T20:24:03.373Z,19.00
2023-02-12T20:26:31.705Z,20.00
2023-02-12T20:29:04.629Z,18.40
2023-02-12T20:31:34.942Z,16.57
2023-02-12T20:34:04.507Z,18.53
2023-02-12T20:36:33.020Z,17.50
2023-02-12T20:39:00.947Z,16.83
2023-02-12T20:41:28.768Z,16.63
2023-02-12T20:43:56.411Z,16.90
2023-02-12T20:46:25.745Z,18.10
2023-02-12T20:48:54.153Z,15.67
2023-02-12T20:51:23.412Z,17.83
2023-02-12T20:53:51.463Z,17.17
2023-02-12T20:56:21.152Z,17.97
2023-02-12T20:58:48.734Z,17.13
2023-02-12T21:01:18.649Z,18.47
2023-02-12T21:03:48.034Z,17.73
2023-02-12T21:06:16.082Z,15.40
2023-02-12T21:08:43.820Z,16.63
2023-02-12T21:11:15.209Z,15.00
2023-02-12T21:13:50.424Z,16.77
2023-02-12T21:16:28.348Z,17.13
2023-02-12T21:18:57.409Z,17.47
2023-02-12T21:21:26.957Z,16.57
2023-02-12T21:23:56.657Z,16.23
2023-02-12T21:26:26.497Z,16.70
2023-02-12T21:28:54.425Z,16.33
2023-02-12T21:31:23.735Z,16.87
2023-02-12T21:33:52.595Z,15.00
2023-02-12T21:36:22.940Z,14.07
2023-02-12T21:38:51.253Z,13.57
2023-02-12T21:41:21.086Z,13.13
2023-02-12T21:43:51.109Z,14.87
2023-02-12T21:46:19.777Z,14.80
2023-02-12T21:48:47.609Z,15.80
2023-02-12T21:51:19.857Z,15.03
2023-02-12T21:53:49.498Z,12.23
2023-02-12T21:56:17.900Z,11.97
2023-02-12T21:58:45.834Z,12.73
2023-02-12T22:01:16.689Z,12.03
2023-02-12T22:03:45.212Z,13.53
2023-02-12T22:06:14.565Z,13.50
2023-02-12T22:08:42.105Z,12.97
2023-02-12T22:11:12.520Z,12.43
2023-02-12T22:13:40.790Z,13.53
2023-02-12T22:16:10.083Z,13.63
2023-02-12T22:18:38.089Z,14.23
2023-02-12T22:21:07.420Z,14.03
2023-02-12T22:23:35.865Z,14.27
2023-02-12T22:26:07.333Z,14.63
2023-02-12T22:28:41.020Z,14.53
2023-02-12T22:31:09.204Z,14.10
2023-02-12T22:33:36.927Z,14.67
2023-02-12T22:36:05.400Z,14.77
2023-02-12T22:38:34.148Z,13.27
2023-02-12T22:41:01.828Z,14.10
2023-02-12T22:43:30.440Z,14.00
2023-02-12T22:45:59.559Z,17.47
2023-02-12T22:48:29.301Z,15.53
2023-02-12T22:50:57.895Z,14.63
2023-02-12T22:53:26.370Z,14.50
2023-02-12T22:55:54.086Z,17.33
2023-02-12T22:58:21.618Z,13.80
2023-02-12T23:00:49.214Z,13.80
2023-02-12T23:03:18.109Z,15.13
2023-02-12T23:05:45.623Z,16.23
2023-02-12T23:08:13.172Z,14.70
2023-02-12T23:10:40.692Z,14.63
2023-02-12T23:13:09.413Z,13.87
2023-02-12T23:15:38.151Z,13.57
2023-02-12T23:18:05.813Z,14.77
2023-02-12T23:20:34.714Z,15.30
2023-02-12T23:23:02.424Z,14.67
2023-02-12T23:25:29.976Z,12.33
2023-02-12T23:27:57.539Z,12.57
2023-02-12T23:30:25.094Z,13.83
2023-02-12T23:32:52.620Z,13.27
2023-02-12T23:35:20.141Z,14.13
2023-02-12T23:37:48.976Z,13.20
2023-02-12T23:40:16.845Z,13.93
2023-02-12T23:42:46.437Z,19.30
2023-02-12T23:45:14.583Z,15.97
2023-02-12T23:47:42.119Z,13.47
2023-02-12T23:50:10.479Z,13.57
2023-02-12T23:52:38.032Z,13.00
2023-02-12T23:55:07.692Z,13.40
2023-02-12T23:57:35.487Z,13.80
